sensor_id;sensor_type;location;lat;lon;timestamp;temperature;humidity
4701;DHT22;8724;51.272;6.554;2023-03-31T00:01:09;13.50;99.90
4701;DHT22;8724;51.272;6.554;2023-03-31T00:03:37;13.50;99.90
4701;DHT22;8724;51.272;6.554;2023-03-31T00:06:12;13.50;99.90
4701;DHT22;8724;51.272;6.554;2023-03-31T00:08:45;13.50;99.90
4701;DHT22;8724;51.272;6.554;2023-03-31T00:11:19;13.50;99.90
4701;DHT22;8724;51.272;6.554;2023-03-31T00:13:48;13.50;99.90
4701;DHT22;8724;51.272;6.554;2023-03-31T00:16:18;13.50;99.90
4701;DHT22;8724;51.272;6.554;2023-03-31T00:18:47;13.50;99.90
4701;DHT22;8724;51.272;6.554;2023-03-31T00:21:19;13.50;99.90
4701;DHT22;8724;51.272;6.554;2023-03-31T00:24:01;13.50;99.90
4701;DHT22;8724;51.272;6.554;2023-03-31T00:26:30;13.50;99.90
4701;DHT22;8724;51.272;6.554;2023-03-31T00:28:59;13.50;99.90
4701;DHT22;8724;51.272;6.554;2023-03-31T00:31:29;13.50;99.90
4701;DHT22;8724;51.272;6.554;2023-03-31T00:33:58;13.50;99.90
4701;DHT22;8724;51.272;6.554;2023-03-31T00:36:27;13.50;99.90
4701;DHT22;8724;51.272;6.554;2023-03-31T00:38:57;13.50;99.90
4701;DHT22;8724;51.272;6.554;2023-03-31T00:41:27;13.50;99.90
4701;DHT22;8724;51.272;6.554;2023-03-31T00:44:01;13.50;99.90
4701;DHT22;8724;51.272;6.554;2023-03-31T00:46:36;13.50;99.90
4701;DHT22;8724;51.272;6.554;2023-03-31T00:49:13;13.50;99.90
4701;DHT22;8724;51.272;6.554;2023-03-31T00:51:44;13.50;99.90
4701;DHT22;8724;51.272;6.554;2023-03-31T00:54:13;13.60;99.90
4701;DHT22;8724;51.272;6.554;2023-03-31T00:56:45;13.50;99.90
4701;DHT22;8724;51.272;6.554;2023-03-31T00:59:15;13.50;99.90
4701;DHT22;8724;51.272;6.554;2023-03-31T01:01:47;13.50;99.90
4701;DHT22;8724;51.272;6.554;2023-03-31T01:04:19;13.60;99.90
4701;DHT22;8724;51.272;6.554;2023-03-31T01:06:54;13.50;99.90
4701;DHT22;8724;51.272;6.554;2023-03-31T01:09:28;13.60;99.90
4701;DHT22;8724;51.272;6.554;2023-03-31T01:12:05;13.60;99.90
4701;DHT22;8724;51.272;6.554;2023-03-31T01:14:34;13.60;99.90
4701;DHT22;8724;51.272;6.554;2023-03-31T01:17:04;13.50;99.90
4701;DHT22;8724;51.272;6.554;2023-03-31T01:19:49;13.50;99.90
4701;DHT22;8724;51.272;6.554;2023-03-31T01:22:52;13.60;99.90
4701;DHT22;8724;51.272;6.554;2023-03-31T01:25:47;13.60;99.90
4701;DHT22;8724;51.272;6.554;2023-03-31T01:28:26;13.60;99.90
4701;DHT22;8724;51.272;6.554;2023-03-31T01:31:39;13.60;99.90
4701;DHT22;8724;51.272;6.554;2023-03-31T01:38:01;13.60;99.90
4701;DHT22;8724;51.272;6.554;2023-03-31T01:40:43;13.60;99.90
4701;DHT22;8724;51.272;6.554;2023-03-31T01:43:20;13.60;99.90
4701;DHT22;8724;51.272;6.554;2023-03-31T01:45:56;13.60;99.90
4701;DHT22;8724;51.272;6.554;2023-03-31T01:48:37;13.60;99.90
4701;DHT22;8724;51.272;6.554;2023-03-31T01:51:13;13.60;99.90
4701;DHT22;8724;51.272;6.554;2023-03-31T01:53:50;13.60;99.90
4701;DHT22;8724;51.272;6.554;2023-03-31T01:56:26;13.50;99.90
4701;DHT22;8724;51.272;6.554;2023-03-31T01:59:00;13.60;99.90
4701;DHT22;8724;51.272;6.554;2023-03-31T02:01:35;13.60;99.90
4701;DHT22;8724;51.272;6.554;2023-03-31T02:04:09;13.50;99.90
4701;DHT22;8724;51.272;6.554;2023-03-31T02:06:41;13.60;99.90
4701;DHT22;8724;51.272;6.554;2023-03-31T02:09:13;13.60;99.90
4701;DHT22;8724;51.272;6.554;2023-03-31T02:11:46;13.50;99.90
4701;DHT22;8724;51.272;6.554;2023-03-31T02:14:18;13.50;99.90
4701;DHT22;8724;51.272;6.554;2023-03-31T02:16:51;13.50;99.90
4701;DHT22;8724;51.272;6.554;2023-03-31T02:19:27;13.50;99.90
4701;DHT22;8724;51.272;6.554;2023-03-31T02:21:58;13.50;99.90
4701;DHT22;8724;51.272;6.554;2023-03-31T02:24:28;13.50;99.90
4701;DHT22;8724;51.272;6.554;2023-03-31T02:27:03;13.50;99.90
4701;DHT22;8724;51.272;6.554;2023-03-31T02:29:33;13.50;99.90
4701;DHT22;8724;51.272;6.554;2023-03-31T02:32:05;13.50;99.90
4701;DHT22;8724;51.272;6.554;2023-03-31T02:34:34;13.50;99.90
4701;DHT22;8724;51.272;6.554;2023-03-31T02:37:03;13.50;99.90
4701;DHT22;8724;51.272;6.554;2023-03-31T02:39:33;13.50;99.90
4701;DHT22;8724;51.272;6.554;2023-03-31T02:42:04;13.50;99.90
4701;DHT22;8724;51.272;6.554;2023-03-31T02:44:34;13.50;99.90
4701;DHT22;8724;51.272;6.554;2023-03-31T02:47:06;13.60;99.90
4701;DHT22;8724;51.272;6.554;2023-03-31T02:49:37;13.40;99.90
4701;DHT22;8724;51.272;6.554;2023-03-31T02:52:22;13.40;99.90
4701;DHT22;8724;51.272;6.554;2023-03-31T02:55:23;13.50;99.90
4701;DHT22;8724;51.272;6.554;2023-03-31T02:58:27;13.50;99.90
4701;DHT22;8724;51.272;6.554;2023-03-31T03:01:07;13.50;99.90
4701;DHT22;8724;51.272;6.554;2023-03-31T03:03:49;13.50;99.90
4701;DHT22;8724;51.272;6.554;2023-03-31T03:06:35;13.50;99.90
4701;DHT22;8724;51.272;6.554;2023-03-31T03:09:26;13.50;99.90
4701;DHT22;8724;51.272;6.554;2023-03-31T03:12:05;13.50;99.90
4701;DHT22;8724;51.272;6.554;2023-03-31T03:14:39;13.40;99.90
4701;DHT22;8724;51.272;6.554;2023-03-31T03:17:15;13.40;99.90
4701;DHT22;8724;51.272;6.554;2023-03-31T03:19:50;13.50;99.90
4701;DHT22;8724;51.272;6.554;2023-03-31T03:22:20;13.50;99.90
4701;DHT22;8724;51.272;6.554;2023-03-31T03:24:48;13.50;99.90
4701;DHT22;8724;51.272;6.554;2023-03-31T03:27:17;13.50;99.90
4701;DHT22;8724;51.272;6.554;2023-03-31T03:29:50;13.50;99.90
4701;DHT22;8724;51.272;6.554;2023-03-31T03:32:18;13.50;99.90
4701;DHT22;8724;51.272;6.554;2023-03-31T03:34:46;13.50;99.90
4701;DHT22;8724;51.272;6.554;2023-03-31T03:37:15;13.50;99.90
4701;DHT22;8724;51.272;6.554;2023-03-31T03:39:43;13.50;99.90
4701;DHT22;8724;51.272;6.554;2023-03-31T03:42:11;13.50;99.90
4701;DHT22;8724;51.272;6.554;2023-03-31T03:44:40;13.50;99.90
4701;DHT22;8724;51.272;6.554;2023-03-31T03:47:10;13.50;99.90
4701;DHT22;8724;51.272;6.554;2023-03-31T03:49:38;13.50;99.90
4701;DHT22;8724;51.272;6.554;2023-03-31T03:52:07;13.50;99.90
4701;DHT22;8724;51.272;6.554;2023-03-31T03:54:35;13.50;99.90
4701;DHT22;8724;51.272;6.554;2023-03-31T03:57:03;13.50;99.90
4701;DHT22;8724;51.272;6.554;2023-03-31T03:59:33;13.50;99.90
4701;DHT22;8724;51.272;6.554;2023-03-31T04:02:01;13.50;99.90
4701;DHT22;8724;51.272;6.554;2023-03-31T04:04:31;13.50;99.90
4701;DHT22;8724;51.272;6.554;2023-03-31T04:06:59;13.50;99.90
4701;DHT22;8724;51.272;6.554;2023-03-31T04:09:28;13.50;99.90
4701;DHT22;8724;51.272;6.554;2023-03-31T04:11:56;13.50;99.90
4701;DHT22;8724;51.272;6.554;2023-03-31T04:14:25;13.50;99.90
4701;DHT22;8724;51.272;6.554;2023-03-31T04:16:53;13.50;99.90
4701;DHT22;8724;51.272;6.554;2023-03-31T04:19:22;13.50;99.90
4701;DHT22;8724;51.272;6.554;2023-03-31T04:21:53;13.50;99.90
4701;DHT22;8724;51.272;6.554;2023-03-31T04:24:29;13.50;99.90
4701;DHT22;8724;51.272;6.554;2023-03-31T04:26:59;13.50;99.90
4701;DHT22;8724;51.272;6.554;2023-03-31T04:29:29;13.50;99.90
4701;DHT22;8724;51.272;6.554;2023-03-31T04:32:00;13.50;99.90
4701;DHT22;8724;51.272;6.554;2023-03-31T04:34:29;13.50;99.90
4701;DHT22;8724;51.272;6.554;2023-03-31T04:37:03;13.50;99.90
4701;DHT22;8724;51.272;6.554;2023-03-31T04:39:32;13.50;99.90
4701;DHT22;8724;51.272;6.554;2023-03-31T04:42:01;13.50;99.90
4701;DHT22;8724;51.272;6.554;2023-03-31T04:44:29;13.50;99.90
4701;DHT22;8724;51.272;6.554;2023-03-31T04:46:57;13.50;99.90
4701;DHT22;8724;51.272;6.554;2023-03-31T04:49:29;13.50;99.90
4701;DHT22;8724;51.272;6.554;2023-03-31T04:51:59;13.50;99.90
4701;DHT22;8724;51.272;6.554;2023-03-31T04:54:29;13.50;99.90
4701;DHT22;8724;51.272;6.554;2023-03-31T04:56:57;13.50;99.90
4701;DHT22;8724;51.272;6.554;2023-03-31T04:59:26;13.50;99.90
4701;DHT22;8724;51.272;6.554;2023-03-31T05:01:54;13.40;99.90
4701;DHT22;8724;51.272;6.554;2023-03-31T05:04:23;13.50;99.90
4701;DHT22;8724;51.272;6.554;2023-03-31T05:06:52;13.50;99.90
4701;DHT22;8724;51.272;6.554;2023-03-31T05:09:21;13.40;99.90
4701;DHT22;8724;51.272;6.554;2023-03-31T05:11:51;13.50;99.90
4701;DHT22;8724;51.272;6.554;2023-03-31T05:14:19;13.40;99.90
4701;DHT22;8724;51.272;6.554;2023-03-31T05:16:47;13.50;99.90
4701;DHT22;8724;51.272;6.554;2023-03-31T05:19:16;13.50;99.90
4701;DHT22;8724;51.272;6.554;2023-03-31T05:21:44;13.40;99.90
4701;DHT22;8724;51.272;6.554;2023-03-31T05:24:13;13.40;99.90
4701;DHT22;8724;51.272;6.554;2023-03-31T05:26:41;13.50;99.90
4701;DHT22;8724;51.272;6.554;2023-03-31T05:29:15;13.40;99.90
4701;DHT22;8724;51.272;6.554;2023-03-31T05:31:44;13.40;99.90
4701;DHT22;8724;51.272;6.554;2023-03-31T05:34:13;13.40;99.90
4701;DHT22;8724;51.272;6.554;2023-03-31T05:36:42;13.40;99.90
4701;DHT22;8724;51.272;6.554;2023-03-31T05:39:10;13.40;99.90
4701;DHT22;8724;51.272;6.554;2023-03-31T05:41:39;13.40;99.90
4701;DHT22;8724;51.272;6.554;2023-03-31T05:44:07;13.40;99.90
4701;DHT22;8724;51.272;6.554;2023-03-31T05:46:37;13.40;99.90
4701;DHT22;8724;51.272;6.554;2023-03-31T05:49:06;13.40;99.90
4701;DHT22;8724;51.272;6.554;2023-03-31T05:51:34;13.40;99.90
4701;DHT22;8724;51.272;6.554;2023-03-31T05:54:03;13.40;99.90
4701;DHT22;8724;51.272;6.554;2023-03-31T05:56:32;13.40;99.90
4701;DHT22;8724;51.272;6.554;2023-03-31T05:59:01;13.40;99.90
4701;DHT22;8724;51.272;6.554;2023-03-31T06:01:31;13.40;99.90
4701;DHT22;8724;51.272;6.554;2023-03-31T06:04:01;13.40;99.90
4701;DHT22;8724;51.272;6.554;2023-03-31T06:06:29;13.40;99.90
4701;DHT22;8724;51.272;6.554;2023-03-31T06:08:59;13.40;99.90
4701;DHT22;8724;51.272;6.554;2023-03-31T06:11:27;13.40;99.90
4701;DHT22;8724;51.272;6.554;2023-03-31T06:13:56;13.40;99.90
4701;DHT22;8724;51.272;6.554;2023-03-31T06:16:24;13.40;99.90
4701;DHT22;8724;51.272;6.554;2023-03-31T06:18:55;13.40;99.90
4701;DHT22;8724;51.272;6.554;2023-03-31T06:21:24;13.40;99.90
4701;DHT22;8724;51.272;6.554;2023-03-31T06:23:53;13.40;99.90
4701;DHT22;8724;51.272;6.554;2023-03-31T06:26:24;13.40;99.90
4701;DHT22;8724;51.272;6.554;2023-03-31T06:28:53;13.40;99.90
4701;DHT22;8724;51.272;6.554;2023-03-31T06:31:23;13.40;99.90
4701;DHT22;8724;51.272;6.554;2023-03-31T06:33:52;13.40;99.90
4701;DHT22;8724;51.272;6.554;2023-03-31T06:36:21;13.40;99.90
4701;DHT22;8724;51.272;6.554;2023-03-31T06:38:51;13.40;99.90
4701;DHT22;8724;51.272;6.554;2023-03-31T06:41:20;13.40;99.90
4701;DHT22;8724;51.272;6.554;2023-03-31T06:43:48;13.40;99.90
4701;DHT22;8724;51.272;6.554;2023-03-31T06:46:17;13.40;99.90
4701;DHT22;8724;51.272;6.554;2023-03-31T06:48:46;13.40;99.90
4701;DHT22;8724;51.272;6.554;2023-03-31T06:51:15;13.40;99.90
4701;DHT22;8724;51.272;6.554;2023-03-31T06:53:43;13.40;99.90
4701;DHT22;8724;51.272;6.554;2023-03-31T06:56:13;13.40;99.90
4701;DHT22;8724;51.272;6.554;2023-03-31T06:58:41;13.40;99.90
4701;DHT22;8724;51.272;6.554;2023-03-31T07:01:10;13.40;99.90
4701;DHT22;8724;51.272;6.554;2023-03-31T07:03:38;13.40;99.90
4701;DHT22;8724;51.272;6.554;2023-03-31T07:06:07;13.40;99.90
4701;DHT22;8724;51.272;6.554;2023-03-31T07:08:35;13.40;99.90
4701;DHT22;8724;51.272;6.554;2023-03-31T07:11:04;13.40;99.90
4701;DHT22;8724;51.272;6.554;2023-03-31T07:13:34;13.40;99.90
4701;DHT22;8724;51.272;6.554;2023-03-31T07:16:03;13.40;99.90
4701;DHT22;8724;51.272;6.554;2023-03-31T07:18:33;13.40;99.90
4701;DHT22;8724;51.272;6.554;2023-03-31T07:21:03;13.40;99.90
4701;DHT22;8724;51.272;6.554;2023-03-31T07:23:36;13.40;99.90
4701;DHT22;8724;51.272;6.554;2023-03-31T07:26:05;13.40;99.90
4701;DHT22;8724;51.272;6.554;2023-03-31T07:28:36;13.40;99.90
4701;DHT22;8724;51.272;6.554;2023-03-31T07:31:10;13.40;99.90
4701;DHT22;8724;51.272;6.554;2023-03-31T07:33:39;13.40;99.90
4701;DHT22;8724;51.272;6.554;2023-03-31T07:36:09;13.40;99.90
4701;DHT22;8724;51.272;6.554;2023-03-31T07:38:41;13.40;99.90
4701;DHT22;8724;51.272;6.554;2023-03-31T07:41:10;13.40;99.90
4701;DHT22;8724;51.272;6.554;2023-03-31T07:43:41;13.40;99.90
4701;DHT22;8724;51.272;6.554;2023-03-31T07:46:15;13.40;99.90
4701;DHT22;8724;51.272;6.554;2023-03-31T07:48:44;13.50;99.90
4701;DHT22;8724;51.272;6.554;2023-03-31T07:51:20;13.40;99.90
4701;DHT22;8724;51.272;6.554;2023-03-31T07:53:48;13.50;99.90
4701;DHT22;8724;51.272;6.554;2023-03-31T07:56:20;13.50;99.90
4701;DHT22;8724;51.272;6.554;2023-03-31T07:58:50;13.50;99.90
4701;DHT22;8724;51.272;6.554;2023-03-31T08:01:23;13.50;99.90
4701;DHT22;8724;51.272;6.554;2023-03-31T08:03:55;13.50;99.90
4701;DHT22;8724;51.272;6.554;2023-03-31T08:06:25;13.50;99.90
4701;DHT22;8724;51.272;6.554;2023-03-31T08:08:55;13.50;99.90
4701;DHT22;8724;51.272;6.554;2023-03-31T08:11:25;13.50;99.90
4701;DHT22;8724;51.272;6.554;2023-03-31T08:13:54;13.50;99.90
4701;DHT22;8724;51.272;6.554;2023-03-31T08:16:23;13.50;99.90
4701;DHT22;8724;51.272;6.554;2023-03-31T08:18:52;13.50;99.90
4701;DHT22;8724;51.272;6.554;2023-03-31T08:21:20;13.50;99.90
4701;DHT22;8724;51.272;6.554;2023-03-31T08:23:53;13.50;99.90
4701;DHT22;8724;51.272;6.554;2023-03-31T08:26:21;13.50;99.90
4701;DHT22;8724;51.272;6.554;2023-03-31T08:28:51;13.50;99.90
4701;DHT22;8724;51.272;6.554;2023-03-31T08:31:21;13.50;99.90
4701;DHT22;8724;51.272;6.554;2023-03-31T08:33:53;13.50;99.90
4701;DHT22;8724;51.272;6.554;2023-03-31T08:36:22;13.50;99.90
4701;DHT22;8724;51.272;6.554;2023-03-31T08:38:50;13.50;99.90
4701;DHT22;8724;51.272;6.554;2023-03-31T08:41:33;13.50;99.90
4701;DHT22;8724;51.272;6.554;2023-03-31T08:44:08;13.50;99.90
4701;DHT22;8724;51.272;6.554;2023-03-31T08:46:40;13.60;99.90
4701;DHT22;8724;51.272;6.554;2023-03-31T08:49:13;13.60;99.90
4701;DHT22;8724;51.272;6.554;2023-03-31T08:51:46;13.60;99.90
4701;DHT22;8724;51.272;6.554;2023-03-31T08:54:18;13.60;99.90
4701;DHT22;8724;51.272;6.554;2023-03-31T08:56:48;13.60;99.90
4701;DHT22;8724;51.272;6.554;2023-03-31T08:59:24;13.60;99.90
4701;DHT22;8724;51.272;6.554;2023-03-31T09:02:00;13.60;99.90
4701;DHT22;8724;51.272;6.554;2023-03-31T09:04:53;13.70;99.90
4701;DHT22;8724;51.272;6.554;2023-03-31T09:07:30;13.70;99.90
4701;DHT22;8724;51.272;6.554;2023-03-31T09:10:09;13.70;99.90
4701;DHT22;8724;51.272;6.554;2023-03-31T09:12:47;13.70;99.90
4701;DHT22;8724;51.272;6.554;2023-03-31T09:15:23;13.70;99.90
4701;DHT22;8724;51.272;6.554;2023-03-31T09:17:58;13.70;99.90
4701;DHT22;8724;51.272;6.554;2023-03-31T09:20:30;13.90;99.90
4701;DHT22;8724;51.272;6.554;2023-03-31T09:23:07;13.70;99.90
4701;DHT22;8724;51.272;6.554;2023-03-31T09:25:40;13.70;99.90
4701;DHT22;8724;51.272;6.554;2023-03-31T09:28:18;13.70;99.90
4701;DHT22;8724;51.272;6.554;2023-03-31T09:30:48;13.70;99.90
4701;DHT22;8724;51.272;6.554;2023-03-31T09:33:22;13.80;99.90
4701;DHT22;8724;51.272;6.554;2023-03-31T09:35:53;13.80;99.90
4701;DHT22;8724;51.272;6.554;2023-03-31T09:38:21;13.80;99.90
4701;DHT22;8724;51.272;6.554;2023-03-31T09:40:50;13.80;99.90
4701;DHT22;8724;51.272;6.554;2023-03-31T09:43:22;13.80;99.90
4701;DHT22;8724;51.272;6.554;2023-03-31T09:45:51;13.80;99.90
4701;DHT22;8724;51.272;6.554;2023-03-31T09:48:37;13.90;99.90
4701;DHT22;8724;51.272;6.554;2023-03-31T09:51:07;13.90;99.90
4701;DHT22;8724;51.272;6.554;2023-03-31T09:53:46;13.90;99.90
4701;DHT22;8724;51.272;6.554;2023-03-31T09:56:32;13.90;99.90
4701;DHT22;8724;51.272;6.554;2023-03-31T09:59:01;13.90;99.90
4701;DHT22;8724;51.272;6.554;2023-03-31T10:01:30;13.90;99.90
4701;DHT22;8724;51.272;6.554;2023-03-31T10:04:02;13.80;99.90
4701;DHT22;8724;51.272;6.554;2023-03-31T10:06:39;13.90;99.90
4701;DHT22;8724;51.272;6.554;2023-03-31T10:09:09;13.90;99.90
4701;DHT22;8724;51.272;6.554;2023-03-31T10:11:39;13.80;99.90
4701;DHT22;8724;51.272;6.554;2023-03-31T10:14:24;13.80;99.90
4701;DHT22;8724;51.272;6.554;2023-03-31T10:16:55;13.90;99.90
4701;DHT22;8724;51.272;6.554;2023-03-31T10:19:27;13.90;99.90
4701;DHT22;8724;51.272;6.554;2023-03-31T10:21:57;13.90;99.90
4701;DHT22;8724;51.272;6.554;2023-03-31T10:24:36;13.80;99.90
4701;DHT22;8724;51.272;6.554;2023-03-31T10:27:06;13.90;99.90
4701;DHT22;8724;51.272;6.554;2023-03-31T10:29:44;13.90;99.90
4701;DHT22;8724;51.272;6.554;2023-03-31T10:32:19;13.90;99.90
4701;DHT22;8724;51.272;6.554;2023-03-31T10:34:50;13.90;99.90
4701;DHT22;8724;51.272;6.554;2023-03-31T10:37:22;13.90;99.90
4701;DHT22;8724;51.272;6.554;2023-03-31T10:39:56;13.90;99.90
4701;DHT22;8724;51.272;6.554;2023-03-31T10:42:26;13.90;99.90
4701;DHT22;8724;51.272;6.554;2023-03-31T10:45:10;13.90;99.90
4701;DHT22;8724;51.272;6.554;2023-03-31T10:47:52;13.90;99.90
4701;DHT22;8724;51.272;6.554;2023-03-31T10:50:27;13.80;99.90
4701;DHT22;8724;51.272;6.554;2023-03-31T10:53:02;13.80;99.90
4701;DHT22;8724;51.272;6.554;2023-03-31T10:55:37;13.80;99.90
4701;DHT22;8724;51.272;6.554;2023-03-31T10:58:20;13.80;99.90
4701;DHT22;8724;51.272;6.554;2023-03-31T11:01:00;13.70;99.90
4701;DHT22;8724;51.272;6.554;2023-03-31T11:03:54;13.70;99.90
4701;DHT22;8724;51.272;6.554;2023-03-31T11:06:36;13.70;99.90
4701;DHT22;8724;51.272;6.554;2023-03-31T11:09:15;13.70;99.90
4701;DHT22;8724;51.272;6.554;2023-03-31T11:12:03;13.70;99.90
4701;DHT22;8724;51.272;6.554;2023-03-31T11:14:42;13.70;99.90
4701;DHT22;8724;51.272;6.554;2023-03-31T11:17:23;13.70;99.90
4701;DHT22;8724;51.272;6.554;2023-03-31T11:19:59;13.70;99.90
4701;DHT22;8724;51.272;6.554;2023-03-31T11:22:43;13.70;99.90
4701;DHT22;8724;51.272;6.554;2023-03-31T11:25:26;13.70;99.90
4701;DHT22;8724;51.272;6.554;2023-03-31T11:28:18;13.70;99.90
4701;DHT22;8724;51.272;6.554;2023-03-31T11:30:53;13.70;99.90
4701;DHT22;8724;51.272;6.554;2023-03-31T11:33:36;13.70;99.90
4701;DHT22;8724;51.272;6.554;2023-03-31T11:36:19;13.70;99.90
4701;DHT22;8724;51.272;6.554;2023-03-31T11:38:58;13.70;99.90
4701;DHT22;8724;51.272;6.554;2023-03-31T11:41:34;13.70;99.90
4701;DHT22;8724;51.272;6.554;2023-03-31T11:44:05;13.80;99.90
4701;DHT22;8724;51.272;6.554;2023-03-31T11:46:39;13.80;99.90
4701;DHT22;8724;51.272;6.554;2023-03-31T11:49:15;13.80;99.90
4701;DHT22;8724;51.272;6.554;2023-03-31T11:51:49;13.80;99.90
4701;DHT22;8724;51.272;6.554;2023-03-31T11:54:26;13.90;99.90
4701;DHT22;8724;51.272;6.554;2023-03-31T11:56:57;13.90;99.90
4701;DHT22;8724;51.272;6.554;2023-03-31T11:59:30;13.90;99.90
4701;DHT22;8724;51.272;6.554;2023-03-31T12:02:03;13.90;99.90
4701;DHT22;8724;51.272;6.554;2023-03-31T12:04:40;14.10;99.90
4701;DHT22;8724;51.272;6.554;2023-03-31T12:07:21;14.00;99.90
4701;DHT22;8724;51.272;6.554;2023-03-31T12:09:56;14.00;99.90
4701;DHT22;8724;51.272;6.554;2023-03-31T12:12:34;14.00;99.90
4701;DHT22;8724;51.272;6.554;2023-03-31T12:15:13;14.00;99.90
4701;DHT22;8724;51.272;6.554;2023-03-31T12:17:44;13.90;99.90
4701;DHT22;8724;51.272;6.554;2023-03-31T12:20:23;13.90;99.90
4701;DHT22;8724;51.272;6.554;2023-03-31T12:22:53;13.90;99.90
4701;DHT22;8724;51.272;6.554;2023-03-31T12:25:33;13.90;99.90
4701;DHT22;8724;51.272;6.554;2023-03-31T12:28:08;13.90;99.90
4701;DHT22;8724;51.272;6.554;2023-03-31T12:30:38;13.90;99.90
4701;DHT22;8724;51.272;6.554;2023-03-31T12:33:15;13.90;99.90
4701;DHT22;8724;51.272;6.554;2023-03-31T12:35:57;14.00;99.90
4701;DHT22;8724;51.272;6.554;2023-03-31T12:38:41;14.00;99.90
4701;DHT22;8724;51.272;6.554;2023-03-31T12:41:21;14.00;99.90
4701;DHT22;8724;51.272;6.554;2023-03-31T12:44:15;14.00;99.90
4701;DHT22;8724;51.272;6.554;2023-03-31T12:47:13;14.10;99.90
4701;DHT22;8724;51.272;6.554;2023-03-31T12:53:06;14.10;99.90
4701;DHT22;8724;51.272;6.554;2023-03-31T12:55:43;14.10;99.90
4701;DHT22;8724;51.272;6.554;2023-03-31T12:58:43;14.20;99.90
4701;DHT22;8724;51.272;6.554;2023-03-31T13:01:16;14.20;99.90
4701;DHT22;8724;51.272;6.554;2023-03-31T13:03:53;14.20;99.90
4701;DHT22;8724;51.272;6.554;2023-03-31T13:09:47;14.20;99.90
4701;DHT22;8724;51.272;6.554;2023-03-31T13:12:21;14.30;99.90
4701;DHT22;8724;51.272;6.554;2023-03-31T13:14:53;14.30;99.90
4701;DHT22;8724;51.272;6.554;2023-03-31T13:17:30;14.30;99.90
4701;DHT22;8724;51.272;6.554;2023-03-31T13:20:25;14.40;99.90
4701;DHT22;8724;51.272;6.554;2023-03-31T13:23:03;14.40;99.90
4701;DHT22;8724;51.272;6.554;2023-03-31T13:25:37;14.40;99.90
4701;DHT22;8724;51.272;6.554;2023-03-31T13:30:59;14.50;99.90
4701;DHT22;8724;51.272;6.554;2023-03-31T13:33:44;14.40;99.90
4701;DHT22;8724;51.272;6.554;2023-03-31T13:42:37;14.50;99.90
4701;DHT22;8724;51.272;6.554;2023-03-31T13:45:18;14.50;99.90
4701;DHT22;8724;51.272;6.554;2023-03-31T13:48:00;14.50;99.90
4701;DHT22;8724;51.272;6.554;2023-03-31T13:53:47;14.60;99.90
4701;DHT22;8724;51.272;6.554;2023-03-31T13:56:44;14.60;99.90
4701;DHT22;8724;51.272;6.554;2023-03-31T13:59:33;14.60;99.90
4701;DHT22;8724;51.272;6.554;2023-03-31T14:02:30;14.60;99.90
4701;DHT22;8724;51.272;6.554;2023-03-31T14:05:10;14.60;99.90
4701;DHT22;8724;51.272;6.554;2023-03-31T14:07:43;14.90;99.90
4701;DHT22;8724;51.272;6.554;2023-03-31T14:10:29;14.70;99.90
4701;DHT22;8724;51.272;6.554;2023-03-31T14:13:09;14.70;99.90
4701;DHT22;8724;51.272;6.554;2023-03-31T14:15:40;14.70;99.90
4701;DHT22;8724;51.272;6.554;2023-03-31T14:18:12;14.70;99.90
4701;DHT22;8724;51.272;6.554;2023-03-31T14:21:00;14.70;99.90
4701;DHT22;8724;51.272;6.554;2023-03-31T14:23:43;14.70;99.90
4701;DHT22;8724;51.272;6.554;2023-03-31T14:26:20;14.70;99.90
4701;DHT22;8724;51.272;6.554;2023-03-31T14:29:13;14.70;99.90
4701;DHT22;8724;51.272;6.554;2023-03-31T14:31:48;14.70;99.90
4701;DHT22;8724;51.272;6.554;2023-03-31T14:34:46;14.70;99.90
4701;DHT22;8724;51.272;6.554;2023-03-31T14:37:19;14.60;99.90
4701;DHT22;8724;51.272;6.554;2023-03-31T14:39:50;14.60;99.90
4701;DHT22;8724;51.272;6.554;2023-03-31T14:42:23;14.50;99.90
4701;DHT22;8724;51.272;6.554;2023-03-31T14:44:55;14.50;99.90
4701;DHT22;8724;51.272;6.554;2023-03-31T14:47:25;14.40;99.90
4701;DHT22;8724;51.272;6.554;2023-03-31T14:49:59;14.40;99.90
4701;DHT22;8724;51.272;6.554;2023-03-31T14:52:31;14.40;99.90
4701;DHT22;8724;51.272;6.554;2023-03-31T14:55:02;14.30;99.90
4701;DHT22;8724;51.272;6.554;2023-03-31T14:57:32;14.30;99.90
4701;DHT22;8724;51.272;6.554;2023-03-31T15:00:04;14.30;99.90
4701;DHT22;8724;51.272;6.554;2023-03-31T15:02:36;14.30;99.90
4701;DHT22;8724;51.272;6.554;2023-03-31T15:05:07;14.30;99.90
4701;DHT22;8724;51.272;6.554;2023-03-31T15:07:39;14.30;99.90
4701;DHT22;8724;51.272;6.554;2023-03-31T15:10:15;14.30;99.90
4701;DHT22;8724;51.272;6.554;2023-03-31T15:12:46;14.30;99.90
4701;DHT22;8724;51.272;6.554;2023-03-31T15:15:16;14.20;99.90
4701;DHT22;8724;51.272;6.554;2023-03-31T15:17:46;14.20;99.90
4701;DHT22;8724;51.272;6.554;2023-03-31T15:20:26;14.30;99.90
4701;DHT22;8724;51.272;6.554;2023-03-31T15:22:58;14.20;99.90
4701;DHT22;8724;51.272;6.554;2023-03-31T15:25:32;14.30;99.90
4701;DHT22;8724;51.272;6.554;2023-03-31T15:28:04;14.30;99.90
4701;DHT22;8724;51.272;6.554;2023-03-31T15:30:34;14.30;99.90
4701;DHT22;8724;51.272;6.554;2023-03-31T15:33:05;14.30;99.90
4701;DHT22;8724;51.272;6.554;2023-03-31T15:35:45;14.20;99.90
4701;DHT22;8724;51.272;6.554;2023-03-31T15:38:16;14.30;99.90
4701;DHT22;8724;51.272;6.554;2023-03-31T15:40:48;14.20;99.90
4701;DHT22;8724;51.272;6.554;2023-03-31T15:43:27;14.20;99.90
4701;DHT22;8724;51.272;6.554;2023-03-31T15:45:56;14.20;99.90
4701;DHT22;8724;51.272;6.554;2023-03-31T15:48:28;14.20;99.90
4701;DHT22;8724;51.272;6.554;2023-03-31T15:51:00;14.20;99.90
4701;DHT22;8724;51.272;6.554;2023-03-31T15:53:35;14.20;99.90
4701;DHT22;8724;51.272;6.554;2023-03-31T15:56:04;14.20;99.90
4701;DHT22;8724;51.272;6.554;2023-03-31T15:58:54;14.20;99.90
4701;DHT22;8724;51.272;6.554;2023-03-31T16:01:26;14.20;99.90
4701;DHT22;8724;51.272;6.554;2023-03-31T16:04:00;14.20;99.90
4701;DHT22;8724;51.272;6.554;2023-03-31T16:06:36;14.20;99.90
4701;DHT22;8724;51.272;6.554;2023-03-31T16:09:08;14.20;99.90
4701;DHT22;8724;51.272;6.554;2023-03-31T16:11:41;14.20;99.90
4701;DHT22;8724;51.272;6.554;2023-03-31T16:14:14;14.20;99.90
4701;DHT22;8724;51.272;6.554;2023-03-31T16:16:49;14.20;99.90
4701;DHT22;8724;51.272;6.554;2023-03-31T16:19:22;14.20;99.90
4701;DHT22;8724;51.272;6.554;2023-03-31T16:21:54;14.20;99.90
4701;DHT22;8724;51.272;6.554;2023-03-31T16:24:30;14.20;99.90
4701;DHT22;8724;51.272;6.554;2023-03-31T16:27:00;14.20;99.90
4701;DHT22;8724;51.272;6.554;2023-03-31T16:29:33;14.10;99.90
4701;DHT22;8724;51.272;6.554;2023-03-31T16:32:09;14.10;99.90
4701;DHT22;8724;51.272;6.554;2023-03-31T16:34:51;14.10;99.90
4701;DHT22;8724;51.272;6.554;2023-03-31T16:37:21;14.10;99.90
4701;DHT22;8724;51.272;6.554;2023-03-31T16:39:50;14.10;99.90
4701;DHT22;8724;51.272;6.554;2023-03-31T16:42:20;14.10;99.90
4701;DHT22;8724;51.272;6.554;2023-03-31T16:44:51;14.10;99.90
4701;DHT22;8724;51.272;6.554;2023-03-31T16:47:23;14.10;99.90
4701;DHT22;8724;51.272;6.554;2023-03-31T16:50:02;14.30;99.90
4701;DHT22;8724;51.272;6.554;2023-03-31T16:52:33;14.00;99.90
4701;DHT22;8724;51.272;6.554;2023-03-31T16:55:04;14.10;99.90
4701;DHT22;8724;51.272;6.554;2023-03-31T16:57:33;14.10;99.90
4701;DHT22;8724;51.272;6.554;2023-03-31T17:00:02;14.00;99.90
4701;DHT22;8724;51.272;6.554;2023-03-31T17:02:30;14.00;99.90
4701;DHT22;8724;51.272;6.554;2023-03-31T17:04:59;14.00;99.90
4701;DHT22;8724;51.272;6.554;2023-03-31T17:07:39;14.00;99.90